TNCB/BON METAR and TAF weather

Enter ICAO airport designator
Station Type Date Time Source
TNCB METAR 2020/04/05 15:55 UTC NOAA

TNCB 051555Z 10017KT 060V140 9999 SCT017 BKN020 30/23 Q1012


Station Type Date Time Source
TNCB Decoded METAR 2020/04/05 15:55 UTC NOAA

Flamingo Airport, Bonaire, Netherlands Antilles (TNCB) 12-09N 068-17W 7M
Apr 05, 2020 - 11:55 AM EDT / 2020.04.05 1555 UTC
Wind: from the E (100 degrees) at 20 MPH (17 KT) (direction variable):0
Visibility: greater than 7 mile(s):0
Sky conditions: mostly cloudy
Temperature: 86 F (30 C)
Heat index: 93.4 F (34.1 C):1
Dew Point: 73 F (23 C)
Relative Humidity: 66%
Pressure (altimeter): 29.88 in. Hg (1012 hPa)
ob: TNCB 051555Z 10017KT 060V140 9999 SCT017 BKN020 30/23 Q1012
cycle: 16

Station Type Date Time Source
TNCB TAF 2020/04/05 12:27 UTC NOAA

TAF TAF TNCB 051052Z 0512/0618 09015KT 9999 SCT018

Example: see airport list